sensor_id;sensor_type;location;lat;lon;timestamp;P1;durP1;ratioP1;P2;durP2;ratioP2
13999;SDS011;7075;53.574;10.054;2024-02-26T00:00:32;9.20;;;6.77;;
13999;SDS011;7075;53.574;10.054;2024-02-26T00:03:02;8.80;;;6.53;;
13999;SDS011;7075;53.574;10.054;2024-02-26T00:05:28;7.90;;;6.23;;
13999;SDS011;7075;53.574;10.054;2024-02-26T00:07:54;9.67;;;7.10;;
13999;SDS011;7075;53.574;10.054;2024-02-26T00:10:21;7.00;;;5.60;;
13999;SDS011;7075;53.574;10.054;2024-02-26T00:12:47;7.67;;;6.13;;
13999;SDS011;7075;53.574;10.054;2024-02-26T00:15:13;9.93;;;6.63;;
13999;SDS011;7075;53.574;10.054;2024-02-26T00:17:39;7.10;;;6.30;;
13999;SDS011;7075;53.574;10.054;2024-02-26T00:20:05;9.00;;;6.73;;
13999;SDS011;7075;53.574;10.054;2024-02-26T00:22:34;10.47;;;7.23;;
13999;SDS011;7075;53.574;10.054;2024-02-26T00:25:00;8.00;;;6.03;;
13999;SDS011;7075;53.574;10.054;2024-02-26T00:27:26;7.17;;;6.43;;
13999;SDS011;7075;53.574;10.054;2024-02-26T00:29:52;9.77;;;6.53;;
13999;SDS011;7075;53.574;10.054;2024-02-26T00:32:18;9.13;;;6.50;;
13999;SDS011;7075;53.574;10.054;2024-02-26T00:34:44;8.80;;;7.07;;
13999;SDS011;7075;53.574;10.054;2024-02-26T00:37:10;9.23;;;6.03;;
13999;SDS011;7075;53.574;10.054;2024-02-26T00:39:36;8.93;;;6.80;;
13999;SDS011;7075;53.574;10.054;2024-02-26T00:42:02;10.10;;;7.37;;
13999;SDS011;7075;53.574;10.054;2024-02-26T00:44:28;8.57;;;6.97;;
13999;SDS011;7075;53.574;10.054;2024-02-26T00:46:54;9.27;;;7.43;;
13999;SDS011;7075;53.574;10.054;2024-02-26T00:49:20;10.27;;;7.40;;
13999;SDS011;7075;53.574;10.054;2024-02-26T00:51:46;10.60;;;7.60;;
13999;SDS011;7075;53.574;10.054;2024-02-26T00:54:12;7.87;;;7.07;;
13999;SDS011;7075;53.574;10.054;2024-02-26T00:56:38;10.80;;;7.17;;
13999;SDS011;7075;53.574;10.054;2024-02-26T00:59:04;8.30;;;6.70;;
13999;SDS011;7075;53.574;10.054;2024-02-26T01:01:31;8.30;;;7.43;;
13999;SDS011;7075;53.574;10.054;2024-02-26T01:03:57;8.43;;;6.87;;
13999;SDS011;7075;53.574;10.054;2024-02-26T01:06:23;9.27;;;6.87;;
13999;SDS011;7075;53.574;10.054;2024-02-26T01:08:48;9.77;;;6.93;;
13999;SDS011;7075;53.574;10.054;2024-02-26T01:11:15;7.10;;;6.10;;
13999;SDS011;7075;53.574;10.054;2024-02-26T01:13:41;8.70;;;6.10;;
13999;SDS011;7075;53.574;10.054;2024-02-26T01:16:07;8.07;;;6.40;;
13999;SDS011;7075;53.574;10.054;2024-02-26T01:18:33;8.80;;;6.80;;
13999;SDS011;7075;53.574;10.054;2024-02-26T01:20:59;8.70;;;6.63;;
13999;SDS011;7075;53.574;10.054;2024-02-26T01:23:25;9.23;;;7.00;;
13999;SDS011;7075;53.574;10.054;2024-02-26T01:25:51;8.37;;;6.70;;
13999;SDS011;7075;53.574;10.054;2024-02-26T01:28:17;8.57;;;6.90;;
13999;SDS011;7075;53.574;10.054;2024-02-26T01:30:43;7.53;;;6.77;;
13999;SDS011;7075;53.574;10.054;2024-02-26T01:33:09;7.33;;;6.50;;
13999;SDS011;7075;53.574;10.054;2024-02-26T01:35:35;8.23;;;6.10;;
13999;SDS011;7075;53.574;10.054;2024-02-26T01:38:01;7.43;;;6.30;;
13999;SDS011;7075;53.574;10.054;2024-02-26T01:40:27;9.20;;;5.97;;
13999;SDS011;7075;53.574;10.054;2024-02-26T01:42:53;7.77;;;5.93;;
13999;SDS011;7075;53.574;10.054;2024-02-26T01:45:19;8.73;;;6.53;;
13999;SDS011;7075;53.574;10.054;2024-02-26T01:47:51;7.33;;;6.23;;
13999;SDS011;7075;53.574;10.054;2024-02-26T01:50:18;7.90;;;5.90;;
13999;SDS011;7075;53.574;10.054;2024-02-26T01:52:45;7.00;;;6.00;;
13999;SDS011;7075;53.574;10.054;2024-02-26T01:55:11;7.87;;;6.40;;
13999;SDS011;7075;53.574;10.054;2024-02-26T01:57:39;7.53;;;6.60;;
13999;SDS011;7075;53.574;10.054;2024-02-26T02:00:05;7.73;;;6.73;;
13999;SDS011;7075;53.574;10.054;2024-02-26T02:02:33;8.50;;;6.63;;
13999;SDS011;7075;53.574;10.054;2024-02-26T02:04:59;8.67;;;6.37;;
13999;SDS011;7075;53.574;10.054;2024-02-26T02:07:25;8.90;;;6.57;;
13999;SDS011;7075;53.574;10.054;2024-02-26T02:09:51;12.33;;;7.57;;
13999;SDS011;7075;53.574;10.054;2024-02-26T02:12:18;10.17;;;7.50;;
13999;SDS011;7075;53.574;10.054;2024-02-26T02:14:44;10.43;;;7.23;;
13999;SDS011;7075;53.574;10.054;2024-02-26T02:17:10;12.07;;;8.30;;
13999;SDS011;7075;53.574;10.054;2024-02-26T02:19:36;13.33;;;8.53;;
13999;SDS011;7075;53.574;10.054;2024-02-26T02:22:02;13.83;;;9.23;;
13999;SDS011;7075;53.574;10.054;2024-02-26T02:24:28;14.80;;;9.20;;
13999;SDS011;7075;53.574;10.054;2024-02-26T02:26:54;13.00;;;9.57;;
13999;SDS011;7075;53.574;10.054;2024-02-26T02:29:21;13.53;;;8.47;;
13999;SDS011;7075;53.574;10.054;2024-02-26T02:31:47;14.80;;;8.80;;
13999;SDS011;7075;53.574;10.054;2024-02-26T02:34:13;12.80;;;9.00;;
13999;SDS011;7075;53.574;10.054;2024-02-26T02:36:49;13.57;;;9.80;;
13999;SDS011;7075;53.574;10.054;2024-02-26T02:39:17;17.43;;;9.03;;
13999;SDS011;7075;53.574;10.054;2024-02-26T02:41:43;13.97;;;9.33;;
13999;SDS011;7075;53.574;10.054;2024-02-26T02:44:09;15.50;;;10.63;;
13999;SDS011;7075;53.574;10.054;2024-02-26T02:46:35;14.37;;;9.70;;
13999;SDS011;7075;53.574;10.054;2024-02-26T02:49:01;15.20;;;10.03;;
13999;SDS011;7075;53.574;10.054;2024-02-26T02:51:27;15.40;;;9.33;;
13999;SDS011;7075;53.574;10.054;2024-02-26T02:53:53;14.83;;;8.80;;
13999;SDS011;7075;53.574;10.054;2024-02-26T02:56:19;11.50;;;9.20;;
13999;SDS011;7075;53.574;10.054;2024-02-26T02:58:45;12.67;;;8.20;;
13999;SDS011;7075;53.574;10.054;2024-02-26T03:01:12;12.90;;;8.13;;
13999;SDS011;7075;53.574;10.054;2024-02-26T03:03:38;10.43;;;7.67;;
13999;SDS011;7075;53.574;10.054;2024-02-26T03:06:04;14.07;;;8.83;;
13999;SDS011;7075;53.574;10.054;2024-02-26T03:08:30;13.13;;;8.63;;
13999;SDS011;7075;53.574;10.054;2024-02-26T03:10:58;10.77;;;7.87;;
13999;SDS011;7075;53.574;10.054;2024-02-26T03:13:24;10.47;;;8.77;;
13999;SDS011;7075;53.574;10.054;2024-02-26T03:15:50;10.73;;;8.10;;
13999;SDS011;7075;53.574;10.054;2024-02-26T03:18:16;11.50;;;8.43;;
13999;SDS011;7075;53.574;10.054;2024-02-26T03:20:42;11.30;;;9.10;;
13999;SDS011;7075;53.574;10.054;2024-02-26T03:23:08;12.00;;;8.97;;
13999;SDS011;7075;53.574;10.054;2024-02-26T03:25:38;11.00;;;8.00;;
13999;SDS011;7075;53.574;10.054;2024-02-26T03:28:04;11.73;;;8.77;;
13999;SDS011;7075;53.574;10.054;2024-02-26T03:30:30;9.73;;;8.47;;
13999;SDS011;7075;53.574;10.054;2024-02-26T03:32:56;11.17;;;8.67;;
13999;SDS011;7075;53.574;10.054;2024-02-26T03:35:22;11.07;;;8.27;;
13999;SDS011;7075;53.574;10.054;2024-02-26T03:37:48;13.30;;;8.00;;
13999;SDS011;7075;53.574;10.054;2024-02-26T03:40:16;12.80;;;9.07;;
13999;SDS011;7075;53.574;10.054;2024-02-26T03:42:44;11.93;;;8.37;;
13999;SDS011;7075;53.574;10.054;2024-02-26T03:45:11;11.83;;;9.20;;
13999;SDS011;7075;53.574;10.054;2024-02-26T03:47:40;10.53;;;9.00;;
13999;SDS011;7075;53.574;10.054;2024-02-26T03:50:06;11.20;;;8.17;;
13999;SDS011;7075;53.574;10.054;2024-02-26T03:52:32;12.17;;;8.57;;
13999;SDS011;7075;53.574;10.054;2024-02-26T03:54:59;13.20;;;8.50;;
13999;SDS011;7075;53.574;10.054;2024-02-26T03:57:25;11.97;;;8.90;;
13999;SDS011;7075;53.574;10.054;2024-02-26T03:59:51;13.03;;;9.33;;
13999;SDS011;7075;53.574;10.054;2024-02-26T04:02:17;10.37;;;8.07;;
13999;SDS011;7075;53.574;10.054;2024-02-26T04:04:45;12.30;;;9.13;;
13999;SDS011;7075;53.574;10.054;2024-02-26T04:10:01;11.50;;;7.80;;
13999;SDS011;7075;53.574;10.054;2024-02-26T04:12:29;10.33;;;7.97;;
13999;SDS011;7075;53.574;10.054;2024-02-26T04:14:55;11.47;;;8.43;;
13999;SDS011;7075;53.574;10.054;2024-02-26T04:17:22;10.53;;;7.97;;
13999;SDS011;7075;53.574;10.054;2024-02-26T04:19:48;11.60;;;9.13;;
13999;SDS011;7075;53.574;10.054;2024-02-26T04:22:13;13.17;;;9.60;;
13999;SDS011;7075;53.574;10.054;2024-02-26T04:24:39;11.60;;;8.63;;
13999;SDS011;7075;53.574;10.054;2024-02-26T04:27:05;12.87;;;8.57;;
13999;SDS011;7075;53.574;10.054;2024-02-26T04:29:31;9.93;;;7.80;;
13999;SDS011;7075;53.574;10.054;2024-02-26T04:31:57;12.07;;;9.37;;
13999;SDS011;7075;53.574;10.054;2024-02-26T04:34:23;14.17;;;9.77;;
13999;SDS011;7075;53.574;10.054;2024-02-26T04:36:50;11.07;;;8.83;;
13999;SDS011;7075;53.574;10.054;2024-02-26T04:39:16;12.03;;;9.07;;
13999;SDS011;7075;53.574;10.054;2024-02-26T04:41:42;10.70;;;8.37;;
13999;SDS011;7075;53.574;10.054;2024-02-26T04:44:08;10.47;;;8.67;;
13999;SDS011;7075;53.574;10.054;2024-02-26T04:46:34;11.97;;;9.13;;
13999;SDS011;7075;53.574;10.054;2024-02-26T04:49:00;13.03;;;9.23;;
13999;SDS011;7075;53.574;10.054;2024-02-26T04:51:26;11.20;;;8.43;;
13999;SDS011;7075;53.574;10.054;2024-02-26T04:53:52;12.50;;;8.83;;
13999;SDS011;7075;53.574;10.054;2024-02-26T04:56:20;11.10;;;8.50;;
13999;SDS011;7075;53.574;10.054;2024-02-26T04:58:46;11.60;;;8.90;;
13999;SDS011;7075;53.574;10.054;2024-02-26T05:01:13;10.70;;;8.73;;
13999;SDS011;7075;53.574;10.054;2024-02-26T05:03:38;10.40;;;8.53;;
13999;SDS011;7075;53.574;10.054;2024-02-26T05:06:05;10.53;;;8.43;;
13999;SDS011;7075;53.574;10.054;2024-02-26T05:08:31;12.23;;;8.40;;
13999;SDS011;7075;53.574;10.054;2024-02-26T05:10:58;11.23;;;8.30;;
13999;SDS011;7075;53.574;10.054;2024-02-26T05:13:25;9.83;;;7.80;;
13999;SDS011;7075;53.574;10.054;2024-02-26T05:15:51;9.40;;;7.87;;
13999;SDS011;7075;53.574;10.054;2024-02-26T05:18:17;9.80;;;7.37;;
13999;SDS011;7075;53.574;10.054;2024-02-26T05:20:43;13.73;;;8.30;;
13999;SDS011;7075;53.574;10.054;2024-02-26T05:23:09;13.07;;;8.73;;
13999;SDS011;7075;53.574;10.054;2024-02-26T05:25:35;10.83;;;8.00;;
13999;SDS011;7075;53.574;10.054;2024-02-26T05:28:01;11.33;;;8.50;;
13999;SDS011;7075;53.574;10.054;2024-02-26T05:30:27;11.53;;;8.43;;
13999;SDS011;7075;53.574;10.054;2024-02-26T05:32:53;12.00;;;8.47;;
13999;SDS011;7075;53.574;10.054;2024-02-26T05:35:19;10.73;;;8.57;;
13999;SDS011;7075;53.574;10.054;2024-02-26T05:37:45;12.57;;;8.70;;
13999;SDS011;7075;53.574;10.054;2024-02-26T05:40:11;11.00;;;7.97;;
13999;SDS011;7075;53.574;10.054;2024-02-26T05:42:37;10.33;;;7.40;;
13999;SDS011;7075;53.574;10.054;2024-02-26T05:45:03;11.83;;;8.37;;
13999;SDS011;7075;53.574;10.054;2024-02-26T05:47:32;14.27;;;7.67;;
13999;SDS011;7075;53.574;10.054;2024-02-26T05:49:58;10.37;;;7.40;;
13999;SDS011;7075;53.574;10.054;2024-02-26T05:52:25;8.87;;;7.07;;
13999;SDS011;7075;53.574;10.054;2024-02-26T05:54:51;9.50;;;7.93;;
13999;SDS011;7075;53.574;10.054;2024-02-26T05:57:17;8.20;;;7.23;;
13999;SDS011;7075;53.574;10.054;2024-02-26T05:59:43;10.80;;;7.50;;
13999;SDS011;7075;53.574;10.054;2024-02-26T06:02:10;8.93;;;7.67;;
13999;SDS011;7075;53.574;10.054;2024-02-26T06:04:36;9.67;;;7.10;;
13999;SDS011;7075;53.574;10.054;2024-02-26T06:07:02;11.67;;;7.63;;
13999;SDS011;7075;53.574;10.054;2024-02-26T06:09:28;9.83;;;6.77;;
13999;SDS011;7075;53.574;10.054;2024-02-26T06:11:54;10.57;;;7.23;;
13999;SDS011;7075;53.574;10.054;2024-02-26T06:14:20;9.83;;;7.70;;
13999;SDS011;7075;53.574;10.054;2024-02-26T06:16:46;9.20;;;7.20;;
13999;SDS011;7075;53.574;10.054;2024-02-26T06:19:13;7.90;;;6.50;;
13999;SDS011;7075;53.574;10.054;2024-02-26T06:21:39;12.77;;;7.50;;
13999;SDS011;7075;53.574;10.054;2024-02-26T06:24:05;9.63;;;7.53;;
13999;SDS011;7075;53.574;10.054;2024-02-26T06:26:31;10.13;;;7.53;;
13999;SDS011;7075;53.574;10.054;2024-02-26T06:28:58;10.13;;;8.00;;
13999;SDS011;7075;53.574;10.054;2024-02-26T06:31:24;9.57;;;7.53;;
13999;SDS011;7075;53.574;10.054;2024-02-26T06:33:52;8.50;;;6.87;;
13999;SDS011;7075;53.574;10.054;2024-02-26T06:36:18;10.00;;;8.47;;
13999;SDS011;7075;53.574;10.054;2024-02-26T06:38:44;9.63;;;7.40;;
13999;SDS011;7075;53.574;10.054;2024-02-26T06:41:10;11.17;;;7.97;;
13999;SDS011;7075;53.574;10.054;2024-02-26T06:43:36;10.57;;;7.53;;
13999;SDS011;7075;53.574;10.054;2024-02-26T06:46:02;9.63;;;7.83;;
13999;SDS011;7075;53.574;10.054;2024-02-26T06:48:28;11.60;;;9.20;;
13999;SDS011;7075;53.574;10.054;2024-02-26T06:50:54;11.20;;;8.27;;
13999;SDS011;7075;53.574;10.054;2024-02-26T06:53:20;11.53;;;8.63;;
13999;SDS011;7075;53.574;10.054;2024-02-26T06:55:46;11.03;;;8.70;;
13999;SDS011;7075;53.574;10.054;2024-02-26T06:58:14;13.87;;;9.37;;
13999;SDS011;7075;53.574;10.054;2024-02-26T07:00:40;12.17;;;8.80;;
13999;SDS011;7075;53.574;10.054;2024-02-26T07:03:06;11.87;;;9.13;;
13999;SDS011;7075;53.574;10.054;2024-02-26T07:05:32;11.20;;;8.83;;
13999;SDS011;7075;53.574;10.054;2024-02-26T07:07:58;11.30;;;9.13;;
13999;SDS011;7075;53.574;10.054;2024-02-26T07:10:24;10.97;;;8.30;;
13999;SDS011;7075;53.574;10.054;2024-02-26T07:12:50;11.17;;;9.20;;
13999;SDS011;7075;53.574;10.054;2024-02-26T07:15:16;11.13;;;9.80;;
13999;SDS011;7075;53.574;10.054;2024-02-26T07:17:42;11.17;;;9.60;;
13999;SDS011;7075;53.574;10.054;2024-02-26T07:20:12;11.63;;;8.70;;
13999;SDS011;7075;53.574;10.054;2024-02-26T07:22:38;11.63;;;8.57;;
13999;SDS011;7075;53.574;10.054;2024-02-26T07:25:04;11.63;;;8.90;;
13999;SDS011;7075;53.574;10.054;2024-02-26T07:27:32;11.40;;;8.60;;
13999;SDS011;7075;53.574;10.054;2024-02-26T07:29:58;11.67;;;9.03;;
13999;SDS011;7075;53.574;10.054;2024-02-26T07:32:24;11.83;;;9.30;;
13999;SDS011;7075;53.574;10.054;2024-02-26T07:34:50;11.73;;;9.00;;
13999;SDS011;7075;53.574;10.054;2024-02-26T07:37:16;10.73;;;8.70;;
13999;SDS011;7075;53.574;10.054;2024-02-26T07:39:42;13.50;;;9.57;;
13999;SDS011;7075;53.574;10.054;2024-02-26T07:42:09;10.20;;;8.00;;
13999;SDS011;7075;53.574;10.054;2024-02-26T07:44:36;11.30;;;8.37;;
13999;SDS011;7075;53.574;10.054;2024-02-26T07:47:02;13.20;;;9.87;;
13999;SDS011;7075;53.574;10.054;2024-02-26T07:49:28;12.23;;;9.50;;
13999;SDS011;7075;53.574;10.054;2024-02-26T07:51:54;12.13;;;8.87;;
13999;SDS011;7075;53.574;10.054;2024-02-26T07:54:22;11.17;;;8.53;;
13999;SDS011;7075;53.574;10.054;2024-02-26T07:56:48;10.37;;;8.07;;
13999;SDS011;7075;53.574;10.054;2024-02-26T07:59:14;11.10;;;8.67;;
13999;SDS011;7075;53.574;10.054;2024-02-26T08:01:41;11.50;;;8.93;;
13999;SDS011;7075;53.574;10.054;2024-02-26T08:04:08;11.00;;;8.40;;
13999;SDS011;7075;53.574;10.054;2024-02-26T08:06:34;10.80;;;8.50;;
13999;SDS011;7075;53.574;10.054;2024-02-26T08:09:00;10.37;;;8.97;;
13999;SDS011;7075;53.574;10.054;2024-02-26T08:11:26;11.67;;;9.90;;
13999;SDS011;7075;53.574;10.054;2024-02-26T08:13:53;11.23;;;8.83;;
13999;SDS011;7075;53.574;10.054;2024-02-26T08:16:19;10.27;;;8.83;;
13999;SDS011;7075;53.574;10.054;2024-02-26T08:18:45;11.17;;;9.03;;
13999;SDS011;7075;53.574;10.054;2024-02-26T08:21:10;12.57;;;9.67;;
13999;SDS011;7075;53.574;10.054;2024-02-26T08:23:37;11.23;;;9.33;;
13999;SDS011;7075;53.574;10.054;2024-02-26T08:26:03;10.30;;;8.57;;
13999;SDS011;7075;53.574;10.054;2024-02-26T08:28:32;11.93;;;8.57;;
13999;SDS011;7075;53.574;10.054;2024-02-26T08:30:58;11.80;;;8.73;;
13999;SDS011;7075;53.574;10.054;2024-02-26T08:33:24;12.53;;;9.17;;
13999;SDS011;7075;53.574;10.054;2024-02-26T08:35:50;13.70;;;8.93;;
13999;SDS011;7075;53.574;10.054;2024-02-26T08:38:18;11.23;;;8.63;;
13999;SDS011;7075;53.574;10.054;2024-02-26T08:40:44;12.40;;;9.00;;
13999;SDS011;7075;53.574;10.054;2024-02-26T08:43:10;10.57;;;8.30;;
13999;SDS011;7075;53.574;10.054;2024-02-26T08:45:40;12.10;;;9.30;;
13999;SDS011;7075;53.574;10.054;2024-02-26T08:48:06;14.60;;;9.00;;
13999;SDS011;7075;53.574;10.054;2024-02-26T08:50:32;15.83;;;9.77;;
13999;SDS011;7075;53.574;10.054;2024-02-26T08:52:58;13.73;;;8.73;;
13999;SDS011;7075;53.574;10.054;2024-02-26T08:55:26;15.80;;;8.77;;
13999;SDS011;7075;53.574;10.054;2024-02-26T08:57:52;15.03;;;8.23;;
13999;SDS011;7075;53.574;10.054;2024-02-26T09:00:18;13.93;;;8.53;;
13999;SDS011;7075;53.574;10.054;2024-02-26T09:02:47;11.40;;;8.50;;
13999;SDS011;7075;53.574;10.054;2024-02-26T09:05:15;11.97;;;8.83;;
13999;SDS011;7075;53.574;10.054;2024-02-26T09:07:41;18.97;;;9.37;;
13999;SDS011;7075;53.574;10.054;2024-02-26T09:10:07;12.27;;;8.87;;
13999;SDS011;7075;53.574;10.054;2024-02-26T09:12:35;12.97;;;8.67;;
13999;SDS011;7075;53.574;10.054;2024-02-26T09:15:01;11.13;;;8.47;;
13999;SDS011;7075;53.574;10.054;2024-02-26T09:17:27;11.30;;;8.63;;
13999;SDS011;7075;53.574;10.054;2024-02-26T09:19:53;9.40;;;7.83;;
13999;SDS011;7075;53.574;10.054;2024-02-26T09:22:19;10.07;;;8.63;;
13999;SDS011;7075;53.574;10.054;2024-02-26T09:24:45;10.80;;;7.97;;
13999;SDS011;7075;53.574;10.054;2024-02-26T09:27:11;10.00;;;8.00;;
13999;SDS011;7075;53.574;10.054;2024-02-26T09:29:37;9.67;;;7.53;;
13999;SDS011;7075;53.574;10.054;2024-02-26T09:32:03;12.47;;;8.23;;
13999;SDS011;7075;53.574;10.054;2024-02-26T09:34:29;10.50;;;8.30;;
13999;SDS011;7075;53.574;10.054;2024-02-26T09:36:55;9.37;;;7.10;;
13999;SDS011;7075;53.574;10.054;2024-02-26T09:39:21;7.47;;;6.60;;
13999;SDS011;7075;53.574;10.054;2024-02-26T09:41:48;12.13;;;9.27;;
13999;SDS011;7075;53.574;10.054;2024-02-26T09:44:15;13.80;;;8.97;;
13999;SDS011;7075;53.574;10.054;2024-02-26T09:46:44;11.93;;;9.00;;
13999;SDS011;7075;53.574;10.054;2024-02-26T09:49:10;11.07;;;8.00;;
13999;SDS011;7075;53.574;10.054;2024-02-26T09:51:37;10.27;;;7.87;;
13999;SDS011;7075;53.574;10.054;2024-02-26T09:54:04;11.63;;;8.47;;
13999;SDS011;7075;53.574;10.054;2024-02-26T09:56:32;12.23;;;8.57;;
13999;SDS011;7075;53.574;10.054;2024-02-26T09:58:59;10.50;;;8.10;;
13999;SDS011;7075;53.574;10.054;2024-02-26T10:01:25;11.23;;;8.63;;
13999;SDS011;7075;53.574;10.054;2024-02-26T10:03:54;11.23;;;9.40;;
13999;SDS011;7075;53.574;10.054;2024-02-26T10:06:21;10.30;;;8.43;;
13999;SDS011;7075;53.574;10.054;2024-02-26T10:08:47;12.00;;;8.17;;
13999;SDS011;7075;53.574;10.054;2024-02-26T10:11:13;10.43;;;8.47;;
13999;SDS011;7075;53.574;10.054;2024-02-26T10:13:40;12.20;;;8.90;;
13999;SDS011;7075;53.574;10.054;2024-02-26T10:16:06;12.10;;;8.83;;
13999;SDS011;7075;53.574;10.054;2024-02-26T10:18:46;14.20;;;9.80;;
13999;SDS011;7075;53.574;10.054;2024-02-26T10:21:12;12.90;;;9.47;;
13999;SDS011;7075;53.574;10.054;2024-02-26T10:23:39;13.37;;;9.87;;
13999;SDS011;7075;53.574;10.054;2024-02-26T10:26:04;14.43;;;10.17;;
13999;SDS011;7075;53.574;10.054;2024-02-26T10:28:30;12.83;;;9.73;;
13999;SDS011;7075;53.574;10.054;2024-02-26T10:30:58;10.33;;;8.30;;
13999;SDS011;7075;53.574;10.054;2024-02-26T10:33:25;15.53;;;10.73;;
13999;SDS011;7075;53.574;10.054;2024-02-26T10:35:51;13.17;;;10.20;;
13999;SDS011;7075;53.574;10.054;2024-02-26T10:38:19;11.53;;;8.63;;
13999;SDS011;7075;53.574;10.054;2024-02-26T10:40:46;13.90;;;10.23;;
13999;SDS011;7075;53.574;10.054;2024-02-26T10:43:12;14.57;;;10.20;;
13999;SDS011;7075;53.574;10.054;2024-02-26T10:45:39;14.00;;;10.27;;
13999;SDS011;7075;53.574;10.054;2024-02-26T10:48:14;14.33;;;9.97;;
13999;SDS011;7075;53.574;10.054;2024-02-26T10:50:42;12.60;;;10.27;;
13999;SDS011;7075;53.574;10.054;2024-02-26T10:53:11;13.80;;;10.37;;
13999;SDS011;7075;53.574;10.054;2024-02-26T10:55:41;13.03;;;9.97;;
13999;SDS011;7075;53.574;10.054;2024-02-26T10:58:08;13.47;;;10.43;;
13999;SDS011;7075;53.574;10.054;2024-02-26T11:00:34;15.87;;;11.13;;
13999;SDS011;7075;53.574;10.054;2024-02-26T11:03:01;14.13;;;10.20;;
13999;SDS011;7075;53.574;10.054;2024-02-26T11:05:28;14.47;;;10.53;;
13999;SDS011;7075;53.574;10.054;2024-02-26T11:07:55;14.97;;;10.90;;
13999;SDS011;7075;53.574;10.054;2024-02-26T11:10:21;14.20;;;10.23;;
13999;SDS011;7075;53.574;10.054;2024-02-26T11:12:47;12.47;;;9.53;;
13999;SDS011;7075;53.574;10.054;2024-02-26T11:15:13;12.30;;;8.93;;
13999;SDS011;7075;53.574;10.054;2024-02-26T11:17:39;13.27;;;10.40;;
13999;SDS011;7075;53.574;10.054;2024-02-26T11:20:09;12.97;;;9.13;;
13999;SDS011;7075;53.574;10.054;2024-02-26T11:22:38;14.30;;;9.90;;
13999;SDS011;7075;53.574;10.054;2024-02-26T11:25:05;13.90;;;9.47;;
13999;SDS011;7075;53.574;10.054;2024-02-26T11:27:32;10.77;;;8.90;;
13999;SDS011;7075;53.574;10.054;2024-02-26T11:30:00;11.17;;;8.87;;
13999;SDS011;7075;53.574;10.054;2024-02-26T11:32:27;13.83;;;9.43;;
13999;SDS011;7075;53.574;10.054;2024-02-26T11:34:56;10.13;;;7.87;;
13999;SDS011;7075;53.574;10.054;2024-02-26T11:37:23;13.07;;;9.43;;
13999;SDS011;7075;53.574;10.054;2024-02-26T11:39:51;14.07;;;9.20;;
13999;SDS011;7075;53.574;10.054;2024-02-26T11:42:17;10.83;;;9.43;;
13999;SDS011;7075;53.574;10.054;2024-02-26T11:44:48;10.57;;;8.87;;
13999;SDS011;7075;53.574;10.054;2024-02-26T11:47:21;12.10;;;7.97;;
13999;SDS011;7075;53.574;10.054;2024-02-26T11:49:47;11.10;;;8.30;;
13999;SDS011;7075;53.574;10.054;2024-02-26T11:52:14;10.40;;;8.30;;
13999;SDS011;7075;53.574;10.054;2024-02-26T11:57:22;12.83;;;8.47;;
13999;SDS011;7075;53.574;10.054;2024-02-26T11:59:48;9.67;;;8.33;;
13999;SDS011;7075;53.574;10.054;2024-02-26T12:04:59;11.03;;;8.43;;
13999;SDS011;7075;53.574;10.054;2024-02-26T12:07:25;11.80;;;9.27;;
13999;SDS011;7075;53.574;10.054;2024-02-26T12:09:51;11.47;;;8.80;;
13999;SDS011;7075;53.574;10.054;2024-02-26T12:12:18;13.03;;;9.20;;
13999;SDS011;7075;53.574;10.054;2024-02-26T12:14:51;11.80;;;8.90;;
13999;SDS011;7075;53.574;10.054;2024-02-26T12:17:22;12.77;;;9.60;;
13999;SDS011;7075;53.574;10.054;2024-02-26T12:19:50;9.20;;;7.70;;
13999;SDS011;7075;53.574;10.054;2024-02-26T12:22:18;12.10;;;8.80;;
13999;SDS011;7075;53.574;10.054;2024-02-26T12:24:44;14.03;;;9.10;;
13999;SDS011;7075;53.574;10.054;2024-02-26T12:27:10;11.00;;;8.57;;
13999;SDS011;7075;53.574;10.054;2024-02-26T12:29:36;11.50;;;8.23;;
13999;SDS011;7075;53.574;10.054;2024-02-26T12:32:03;10.27;;;8.10;;
13999;SDS011;7075;53.574;10.054;2024-02-26T12:34:31;10.20;;;8.43;;
13999;SDS011;7075;53.574;10.054;2024-02-26T12:36:57;9.97;;;8.20;;
13999;SDS011;7075;53.574;10.054;2024-02-26T12:39:23;13.67;;;10.23;;
13999;SDS011;7075;53.574;10.054;2024-02-26T12:41:50;13.80;;;10.40;;
13999;SDS011;7075;53.574;10.054;2024-02-26T12:44:16;11.83;;;9.40;;
13999;SDS011;7075;53.574;10.054;2024-02-26T12:46:42;11.27;;;9.07;;
13999;SDS011;7075;53.574;10.054;2024-02-26T12:49:08;12.33;;;9.83;;
13999;SDS011;7075;53.574;10.054;2024-02-26T12:51:34;12.77;;;10.37;;
13999;SDS011;7075;53.574;10.054;2024-02-26T12:54:00;13.90;;;10.00;;
13999;SDS011;7075;53.574;10.054;2024-02-26T12:56:27;13.07;;;10.33;;
13999;SDS011;7075;53.574;10.054;2024-02-26T12:58:53;12.73;;;9.20;;
13999;SDS011;7075;53.574;10.054;2024-02-26T13:01:21;12.20;;;9.37;;
13999;SDS011;7075;53.574;10.054;2024-02-26T13:03:49;11.13;;;8.37;;
13999;SDS011;7075;53.574;10.054;2024-02-26T13:06:15;9.93;;;7.63;;
13999;SDS011;7075;53.574;10.054;2024-02-26T13:08:41;10.23;;;8.53;;
13999;SDS011;7075;53.574;10.054;2024-02-26T13:11:07;10.57;;;7.90;;
13999;SDS011;7075;53.574;10.054;2024-02-26T13:13:33;11.67;;;8.30;;
13999;SDS011;7075;53.574;10.054;2024-02-26T13:16:01;10.43;;;8.43;;
13999;SDS011;7075;53.574;10.054;2024-02-26T13:18:34;11.83;;;8.10;;
13999;SDS011;7075;53.574;10.054;2024-02-26T13:21:11;11.07;;;8.20;;
13999;SDS011;7075;53.574;10.054;2024-02-26T13:23:38;9.57;;;7.67;;
13999;SDS011;7075;53.574;10.054;2024-02-26T13:26:04;11.27;;;7.83;;
13999;SDS011;7075;53.574;10.054;2024-02-26T13:28:30;11.43;;;8.50;;
13999;SDS011;7075;53.574;10.054;2024-02-26T13:30:56;10.07;;;7.53;;
13999;SDS011;7075;53.574;10.054;2024-02-26T13:33:27;12.47;;;8.87;;
13999;SDS011;7075;53.574;10.054;2024-02-26T13:35:53;11.07;;;6.67;;
13999;SDS011;7075;53.574;10.054;2024-02-26T13:38:20;10.53;;;8.47;;
13999;SDS011;7075;53.574;10.054;2024-02-26T13:40:46;9.80;;;7.57;;
13999;SDS011;7075;53.574;10.054;2024-02-26T13:43:11;11.40;;;7.80;;
13999;SDS011;7075;53.574;10.054;2024-02-26T13:45:38;10.60;;;8.57;;
13999;SDS011;7075;53.574;10.054;2024-02-26T13:48:05;9.40;;;7.70;;
13999;SDS011;7075;53.574;10.054;2024-02-26T13:50:31;9.43;;;7.23;;
13999;SDS011;7075;53.574;10.054;2024-02-26T13:52:57;9.70;;;7.07;;
13999;SDS011;7075;53.574;10.054;2024-02-26T13:55:26;10.13;;;7.93;;
13999;SDS011;7075;53.574;10.054;2024-02-26T13:57:54;9.93;;;7.70;;
13999;SDS011;7075;53.574;10.054;2024-02-26T14:00:20;9.33;;;7.93;;
13999;SDS011;7075;53.574;10.054;2024-02-26T14:02:46;10.30;;;7.40;;
13999;SDS011;7075;53.574;10.054;2024-02-26T14:05:12;9.67;;;7.60;;
13999;SDS011;7075;53.574;10.054;2024-02-26T14:07:38;8.90;;;7.40;;
13999;SDS011;7075;53.574;10.054;2024-02-26T14:10:04;9.40;;;8.03;;
13999;SDS011;7075;53.574;10.054;2024-02-26T14:12:31;10.40;;;7.63;;
13999;SDS011;7075;53.574;10.054;2024-02-26T14:14:57;10.17;;;8.03;;
13999;SDS011;7075;53.574;10.054;2024-02-26T14:17:25;10.17;;;7.80;;
13999;SDS011;7075;53.574;10.054;2024-02-26T14:19:51;9.10;;;7.23;;
13999;SDS011;7075;53.574;10.054;2024-02-26T14:22:17;8.73;;;7.03;;
13999;SDS011;7075;53.574;10.054;2024-02-26T14:24:43;7.90;;;6.13;;
13999;SDS011;7075;53.574;10.054;2024-02-26T14:27:12;9.23;;;7.00;;
13999;SDS011;7075;53.574;10.054;2024-02-26T14:29:42;11.27;;;8.33;;
13999;SDS011;7075;53.574;10.054;2024-02-26T14:32:09;10.87;;;8.07;;
13999;SDS011;7075;53.574;10.054;2024-02-26T14:34:35;10.77;;;8.53;;
13999;SDS011;7075;53.574;10.054;2024-02-26T14:37:01;8.90;;;7.53;;
13999;SDS011;7075;53.574;10.054;2024-02-26T14:39:27;10.03;;;8.00;;
13999;SDS011;7075;53.574;10.054;2024-02-26T14:41:54;7.53;;;6.70;;